Lomira, Wisconsin
Current Conditions -  °F | °C
As of 6:53 PM on Friday 24 Oct 2014 (Local Time) from KFLD Reporting Station
Overcast Overcast  
Wind Chill: 55°   Ceiling: 6500
Heat Index: 55°   Visibility: 10mi
Dew Point: 49°   Wind: 8mph
Humidity: 80%   Direction: 180°S
Pressure: 29.92"   Gusts: NA
Location:  43.59°N, 88.44°W
Report Text: KFLD 242353Z AUTO 18007KT 10SM OVC065 13/09 A2992 RMK AO2 SLP133 T01280094 10139 20111 55004
Loading
Personal Weather Stations






























Interactive Weather Map
Tropical Storm Tracking
New forecast layout! Learn more

10-Day Weather Forecast

Advertisements
Track Severe Weather on mobile